Quartz Hill, California
Current Conditions -  °F | °C
As of 11:53 AM on Saturday 25 Oct 2014 (Local Time) from KPMD Reporting Station
Broken Clouds Broken Clouds  
Wind Chill: 79°   Ceiling: 7500
Heat Index: 79°   Visibility: 10mi
Dew Point: 38°   Wind: 20mph
Humidity: 23%   Direction: 260°W
Pressure: 30.09"   Gusts: 25mph
Location:  34.5959°N, 118.235°W
Report Text: KPMD 251853Z 26017G22KT 10SM BKN075 26/03 A3009 RMK AO2 SLP165 T02610033
Loading
Personal Weather Stations






























Interactive Weather Map New forecast layout! Learn more

10-Day Weather Forecast

Advertisements
Track Severe Weather on mobile